Linn Creek, MO (65052)

11:22 AM CST on November 26, 2014 (GMT -0600)
Near Big Surf | Change Station
CLOSE
Current Station
Personal Weather Station
Location: Linn Creek, MO
Elevation: 902 ft
Nearby Weather Stations

Elev 902 ft 38.07 °N, 92.69 °W | Updated 2 minutes ago

Overcast
Overcast
39.2 °F
Feels Like 39 °F
N
2.0
Wind Variable Wind from ENE
Gusts 2.0 mph

Today
High -- | Low -- °F
--% Chance of Precip.
Yesterday
High -- | Low -- °F
Precip. -- in
7:03 AM 4:52 PM
Waxing Crescent, 21% visible
Pressure 29.97 in
Visibility 10.0 miles
Clouds Overcast 600 ft
Windchill 39 °F
Dew Point 33 °F
Humidity 77%
Rainfall 0.12 in
Snow Depth Not available.
UV 1 out of 12
Pollen .30 out of 12
Air Quality Not available.
Flu Activity Not available.
METAR KH21 261715Z AUTO 24005G08KT 10SM OVC006 02/02 A2997 RMK AO2

More Conditions Fewer Conditions

Pressure 29.97 in
Visibility 10.0 miles
Clouds Overcast 600 ft
Windchill 39 °F
Dew Point 33 °F
Humidity 77%
Rainfall 0.12 in
Snow Depth Not available.
UV 1 out of 12
Pollen .30 out of 12
Air Quality Not available.
Flu Activity Not available.
METAR KH21 261715Z AUTO 24005G08KT 10SM OVC006 02/02 A2997 RMK AO2

More Conditions Fewer Conditions

10-Day Weather Forecast

Almanac

Astronomy

Nov. 26, 2014 Rise Set
Actual Time
Civil Twilight
Nautical Twilight
Astronomical Twilight
Moon
Length of Visible Light
Length of Day
Tomorrow will be .
, % of the Moon is Illuminated

Today's Extremes

State Highs State Lows

Community

WunderPhotos

Upload Photos

1,773,800 photos uploaded!

WunderBlogs® & News

Nearby

Air Quality

  Air Quality AQ Index Pollutant
Not available.

Snow Depth

Station Depth Elevation

Earthquake Activity

City Distance Mag. Time & Date
Minimum magnitude displayed is 2.5.

Coastal Water Temperatures

Place Temperature

Nearby Weather Stations